createdAt,value
2023-04-21T00:02:17.487Z,101387.81
2023-04-21T00:04:47.550Z,101391.41
2023-04-21T00:07:14.817Z,101388.69
2023-04-21T00:09:42.436Z,101372.97
2023-04-21T00:12:09.466Z,101369.31
2023-04-21T00:14:36.405Z,101378.75
2023-04-21T00:17:03.539Z,101381.28
2023-04-21T00:19:30.456Z,101383.94
2023-04-21T00:22:01.343Z,101375.94
2023-04-21T00:24:28.474Z,101365.28
2023-04-21T00:26:55.503Z,101375.94
2023-04-21T00:29:29.616Z,101377.72
2023-04-21T00:31:56.626Z,101381.97
2023-04-21T00:34:23.652Z,101375.78
2023-04-21T00:36:50.726Z,101388.06
2023-04-21T00:39:17.876Z,101381.88
2023-04-21T00:41:45.185Z,101372.19
2023-04-21T00:44:12.120Z,101375.59
2023-04-21T00:46:39.455Z,101367.84
2023-04-21T00:49:07.872Z,101367.47
2023-04-21T00:51:36.799Z,101365.13
2023-04-21T00:54:09.254Z,101366.00
2023-04-21T00:56:36.819Z,101369.53
2023-04-21T00:59:04.728Z,101378.13
2023-04-21T01:01:34.364Z,101380.63
2023-04-21T01:04:03.038Z,101379.84
2023-04-21T01:06:34.865Z,101386.88
2023-04-21T01:09:04.013Z,101375.59
2023-04-21T01:11:32.157Z,101372.03
2023-04-21T01:13:59.330Z,101372.94
2023-04-21T01:16:27.000Z,101378.97
2023-04-21T01:18:54.148Z,101372.09
2023-04-21T01:21:22.107Z,101368.38
2023-04-21T01:23:49.148Z,101370.22
2023-04-21T01:26:19.930Z,101359.63
2023-04-21T01:28:48.758Z,101366.66
2023-04-21T01:31:17.054Z,101357.91
2023-04-21T01:33:45.226Z,101351.72
2023-04-21T01:36:12.268Z,101347.41
2023-04-21T01:38:41.470Z,101349.00
2023-04-21T01:41:09.603Z,101344.56
2023-04-21T01:43:37.235Z,101338.41
2023-04-21T01:46:06.390Z,101339.06
2023-04-21T01:48:33.707Z,101334.03
2023-04-21T01:51:00.781Z,101327.75
2023-04-21T01:53:27.734Z,101330.31
2023-04-21T01:55:54.724Z,101326.72
2023-04-21T01:58:22.264Z,101331.13
2023-04-21T02:00:49.296Z,101335.47
2023-04-21T02:03:16.615Z,101329.22
2023-04-21T02:05:43.733Z,101330.13
2023-04-21T02:08:10.947Z,101332.75
2023-04-21T02:10:38.067Z,101334.56
2023-04-21T02:13:05.053Z,101327.72
2023-04-21T02:15:32.089Z,101317.13
2023-04-21T02:17:59.241Z,101317.03
2023-04-21T02:20:26.498Z,101309.13
2023-04-21T02:22:53.532Z,101311.75
2023-04-21T02:25:20.651Z,101301.38
2023-04-21T02:27:47.590Z,101303.84
2023-04-21T02:30:14.783Z,101299.59
2023-04-21T02:32:42.430Z,101299.44
2023-04-21T02:35:10.024Z,101287.38
2023-04-21T02:37:37.041Z,101294.25
2023-04-21T02:40:05.484Z,101290.75
2023-04-21T02:42:34.818Z,101296.88
2023-04-21T02:45:01.949Z,101295.09
2023-04-21T02:47:28.994Z,101297.66
2023-04-21T02:49:56.109Z,101295.03
2023-04-21T02:52:23.039Z,101293.28
2023-04-21T02:54:49.985Z,101281.81
2023-04-21T02:57:17.095Z,101287.97
2023-04-21T02:59:44.086Z,101289.72
2023-04-21T03:02:11.087Z,101294.94
2023-04-21T03:04:39.506Z,101287.94
2023-04-21T03:07:11.296Z,101282.63
2023-04-21T03:09:38.244Z,101285.38
2023-04-21T03:12:05.319Z,101288.06
2023-04-21T03:14:32.435Z,101277.56
2023-04-21T03:16:59.512Z,101276.72
2023-04-21T03:19:26.809Z,101274.94
2023-04-21T03:21:53.807Z,101274.94
2023-04-21T03:24:21.512Z,101268.91
2023-04-21T03:26:48.610Z,101270.59
2023-04-21T03:29:15.576Z,101261.06
2023-04-21T03:31:42.608Z,101257.50
2023-04-21T03:34:09.659Z,101267.13
2023-04-21T03:36:36.642Z,101261.94
2023-04-21T03:39:16.863Z,101272.47
2023-04-21T03:41:46.653Z,101268.13
2023-04-21T03:44:13.746Z,101263.72
2023-04-21T03:46:40.783Z,101261.16
2023-04-21T03:49:07.837Z,101257.66
2023-04-21T03:51:34.885Z,101261.25
2023-04-21T03:54:01.860Z,101258.63
2023-04-21T03:56:28.804Z,101256.91
2023-04-21T03:58:55.827Z,101262.97
2023-04-21T04:01:23.075Z,101264.75
2023-04-21T04:03:50.173Z,101262.25
2023-04-21T04:06:17.252Z,101265.75
2023-04-21T04:08:44.293Z,101265.97
2023-04-21T04:11:11.360Z,101267.63
2023-04-21T04:13:38.319Z,101263.31
2023-04-21T04:16:05.892Z,101273.66
2023-04-21T04:18:33.019Z,101263.31
2023-04-21T04:21:06.286Z,101258.22
2023-04-21T04:23:34.083Z,101258.97
2023-04-21T04:26:07.448Z,101252.72
2023-04-21T04:28:34.987Z,101243.97
2023-04-21T04:31:03.121Z,101250.00
2023-04-21T04:33:30.693Z,101247.38
2023-04-21T04:35:58.316Z,101242.13
2023-04-21T04:38:25.328Z,101239.38
2023-04-21T04:40:57.709Z,101235.84
2023-04-21T04:43:25.581Z,101234.94
2023-04-21T04:45:52.637Z,101232.34
2023-04-21T04:48:19.855Z,101240.91
2023-04-21T04:50:46.919Z,101241.75
2023-04-21T04:53:13.931Z,101248.66
2023-04-21T04:55:40.923Z,101253.91
2023-04-21T04:58:07.992Z,101251.31
2023-04-21T05:00:34.998Z,101257.41
2023-04-21T05:03:02.149Z,101267.03
2023-04-21T05:05:29.360Z,101266.16
2023-04-21T05:07:56.682Z,101266.16
2023-04-21T05:10:24.279Z,101260.03
2023-04-21T05:12:51.235Z,101262.53
2023-04-21T05:15:18.663Z,101267.81
2023-04-21T05:17:45.653Z,101268.66
2023-04-21T05:20:12.734Z,101268.81
2023-04-21T05:22:40.424Z,101267.91
2023-04-21T05:25:08.160Z,101281.97
2023-04-21T05:27:35.100Z,101275.81
2023-04-21T05:30:02.132Z,101277.56
2023-04-21T05:32:29.385Z,101274.09
2023-04-21T05:34:56.720Z,101284.56
2023-04-21T05:37:23.770Z,101284.47
2023-04-21T05:39:51.866Z,101276.75
2023-04-21T05:42:18.849Z,101275.00
2023-04-21T05:44:45.816Z,101276.03
2023-04-21T05:47:12.815Z,101281.41
2023-04-21T05:49:39.782Z,101277.25
2023-04-21T05:52:10.596Z,101276.31
2023-04-21T05:54:37.925Z,101266.44
2023-04-21T05:57:05.724Z,101266.94
2023-04-21T05:59:32.700Z,101264.50
2023-04-21T06:01:59.743Z,101265.56
2023-04-21T06:04:27.204Z,101265.69
2023-04-21T06:06:54.521Z,101264.91
2023-04-21T06:09:21.595Z,101264.13
2023-04-21T06:11:48.585Z,101267.59
2023-04-21T06:14:15.678Z,101252.63
2023-04-21T06:16:42.739Z,101253.56
2023-04-21T06:19:09.865Z,101258.91
2023-04-21T06:21:36.849Z,101257.25
2023-04-21T06:24:04.023Z,101257.28
2023-04-21T06:26:31.172Z,101255.63
2023-04-21T06:28:58.148Z,101257.44
2023-04-21T06:31:25.171Z,101249.50
2023-04-21T06:33:52.184Z,101249.53
2023-04-21T06:36:19.234Z,101255.78
2023-04-21T06:38:46.392Z,101259.38
2023-04-21T06:41:13.359Z,101256.78
2023-04-21T06:43:40.334Z,101260.34
2023-04-21T06:46:07.417Z,101250.69
2023-04-21T06:48:34.373Z,101254.22
2023-04-21T06:51:02.671Z,101259.59
2023-04-21T06:53:29.749Z,101248.13
2023-04-21T06:55:56.733Z,101246.41
2023-04-21T06:58:23.783Z,101248.19
2023-04-21T07:00:51.302Z,101248.19
2023-04-21T07:03:18.439Z,101242.94
2023-04-21T07:05:46.024Z,101247.34
2023-04-21T07:08:13.200Z,101234.13
2023-04-21T07:10:40.273Z,101235.03
2023-04-21T07:13:09.509Z,101229.75
2023-04-21T07:15:37.118Z,101233.34
2023-04-21T07:18:04.243Z,101228.94
2023-04-21T07:20:31.240Z,101218.34
2023-04-21T07:22:58.194Z,101243.06
2023-04-21T07:25:25.262Z,101226.31
2023-04-21T07:27:52.318Z,101229.84
2023-04-21T07:30:19.361Z,101240.44
2023-04-21T07:32:46.985Z,101236.03
2023-04-21T07:35:14.321Z,101240.44
2023-04-21T07:37:41.554Z,101243.97
2023-04-21T07:40:09.514Z,101249.28
2023-04-21T07:42:36.725Z,101244.88
2023-04-21T07:45:05.027Z,101241.34
2023-04-21T07:47:32.627Z,101239.59
2023-04-21T07:49:59.687Z,101243.13
2023-04-21T07:52:26.646Z,101248.44
2023-04-21T07:54:53.677Z,101251.06
2023-04-21T07:57:20.656Z,101251.97
2023-04-21T07:59:47.704Z,101240.50
2023-04-21T08:02:15.003Z,101247.56
2023-04-21T08:04:42.156Z,101243.13
2023-04-21T08:07:10.161Z,101253.75
2023-04-21T08:09:37.360Z,101245.78
2023-04-21T08:12:04.545Z,101241.38
2023-04-21T08:14:32.431Z,101237.84
2023-04-21T08:17:00.147Z,101235.22
2023-04-21T08:19:27.293Z,101235.22
2023-04-21T08:21:54.442Z,101230.81
2023-04-21T08:24:21.558Z,101233.44
2023-04-21T08:26:48.723Z,101230.81
2023-04-21T08:29:15.711Z,101239.69
2023-04-21T08:31:42.844Z,101237.03
2023-04-21T08:34:10.038Z,101239.69
2023-04-21T08:36:37.031Z,101239.69
2023-04-21T08:39:04.223Z,101232.63
2023-04-21T08:41:31.276Z,101237.03
2023-04-21T08:43:58.401Z,101233.50
2023-04-21T08:46:27.655Z,101234.38
2023-04-21T08:48:55.458Z,101230.88
2023-04-21T08:51:24.690Z,101232.63
2023-04-21T08:53:52.206Z,101230.88
2023-04-21T08:56:19.295Z,101225.56
2023-04-21T08:58:46.349Z,101214.97
2023-04-21T09:01:13.470Z,101216.75
2023-04-21T09:03:40.902Z,101213.22
2023-04-21T09:06:10.420Z,101206.16
2023-04-21T09:08:53.275Z,101211.44
2023-04-21T09:11:20.226Z,101201.75
2023-04-21T09:13:47.190Z,101206.16
2023-04-21T09:16:21.408Z,101208.81
2023-04-21T09:18:50.089Z,101201.75
2023-04-21T09:21:19.752Z,101203.53
2023-04-21T09:23:55.554Z,101202.63
2023-04-21T09:26:23.374Z,101203.53
2023-04-21T09:28:52.881Z,101207.94
2023-04-21T09:31:24.858Z,101200.88
2023-04-21T09:34:00.339Z,101212.34
2023-04-21T09:36:32.088Z,101207.06
2023-04-21T09:41:33.023Z,101207.06
2023-04-21T09:44:04.845Z,101199.13
2023-04-21T09:46:36.517Z,101203.53
2023-04-21T09:49:04.972Z,101197.34
2023-04-21T09:52:02.179Z,101195.59
2023-04-21T09:56:56.359Z,101183.22
2023-04-21T09:59:29.828Z,101188.53
2023-04-21T10:01:59.941Z,101186.78
2023-04-21T10:04:29.430Z,101185.88
2023-04-21T10:06:57.011Z,101177.94
2023-04-21T10:09:27.829Z,101179.72
2023-04-21T10:11:55.805Z,101181.47
2023-04-21T10:14:23.007Z,101181.47
2023-04-21T10:17:08.019Z,101179.75
2023-04-21T10:19:40.759Z,101188.59
2023-04-21T10:22:09.251Z,101182.41
2023-04-21T10:24:41.075Z,101168.28
2023-04-21T10:27:13.003Z,101163.84
2023-04-21T10:29:55.716Z,101154.16
2023-04-21T10:32:45.303Z,101157.69
2023-04-21T10:36:01.631Z,101153.25
2023-04-21T10:38:39.862Z,101146.19
2023-04-21T10:41:29.754Z,101146.19
2023-04-21T10:44:13.757Z,101140.91
2023-04-21T10:46:53.086Z,101135.59
2023-04-21T10:49:30.674Z,101131.19
2023-04-21T10:52:00.806Z,101130.31
2023-04-21T10:54:42.292Z,101124.13
2023-04-21T10:57:11.658Z,101119.72
2023-04-21T10:59:39.077Z,101117.94
2023-04-21T11:02:07.958Z,101118.81
2023-04-21T11:04:35.802Z,101125.88
2023-04-21T11:07:12.786Z,101117.06
2023-04-21T11:09:41.753Z,101111.75
2023-04-21T11:12:15.358Z,101105.59
2023-04-21T11:14:44.667Z,101099.41
2023-04-21T11:17:16.941Z,101098.50
2023-04-21T11:19:52.619Z,101087.91
2023-04-21T11:22:23.602Z,101080.84
2023-04-21T11:24:56.927Z,101093.22
2023-04-21T11:27:27.295Z,101079.97
2023-04-21T11:29:54.307Z,101078.19
2023-04-21T11:32:21.587Z,101073.78
2023-04-21T11:34:49.024Z,101066.72
2023-04-21T11:37:25.362Z,101064.94
2023-04-21T11:39:59.471Z,101053.47
2023-04-21T11:42:26.753Z,101046.41
2023-04-21T11:44:57.376Z,101041.97
2023-04-21T11:47:28.789Z,101039.34
2023-04-21T11:49:59.115Z,101035.81
2023-04-21T11:52:34.444Z,101036.69
2023-04-21T11:55:11.327Z,101028.72
2023-04-21T11:57:40.853Z,101025.19
2023-04-21T12:00:15.510Z,101016.38
2023-04-21T12:02:44.386Z,101011.97
2023-04-21T12:05:13.726Z,101008.44
2023-04-21T12:07:46.561Z,101011.97
2023-04-21T12:10:22.593Z,101013.75
2023-04-21T12:12:49.712Z,101011.97
2023-04-21T12:15:23.079Z,101013.72
2023-04-21T12:17:54.562Z,101000.47
2023-04-21T12:20:23.985Z,101003.13
2023-04-21T12:22:51.285Z,101011.97
2023-04-21T12:25:18.592Z,101002.25
2023-04-21T12:27:54.182Z,101004.88
2023-04-21T12:30:22.079Z,100994.28
2023-04-21T12:32:49.432Z,100996.06
2023-04-21T12:35:16.561Z,100995.16
2023-04-21T12:37:44.703Z,101003.09
2023-04-21T12:40:11.842Z,100995.16
2023-04-21T12:42:39.062Z,100990.75
2023-04-21T12:45:07.085Z,100987.19
2023-04-21T12:47:35.290Z,100997.78
2023-04-21T12:50:02.407Z,101001.31
2023-04-21T12:52:29.414Z,100997.78
2023-04-21T12:54:56.391Z,100995.13
2023-04-21T12:57:23.380Z,101001.31
2023-04-21T12:59:50.583Z,100995.13
2023-04-21T13:02:17.889Z,101001.34
2023-04-21T13:04:44.944Z,100995.16
2023-04-21T13:07:12.214Z,100993.38
2023-04-21T13:09:39.279Z,100990.72
2023-04-21T13:12:06.553Z,100986.31
2023-04-21T13:14:33.668Z,100981.91
2023-04-21T13:17:00.862Z,100985.44
2023-04-21T13:19:29.610Z,100989.00
2023-04-21T13:21:57.065Z,100993.41
2023-04-21T13:24:25.934Z,100973.06
2023-04-21T13:26:52.944Z,100969.53
2023-04-21T13:29:20.142Z,100955.38
2023-04-21T13:31:47.177Z,100955.38
2023-04-21T13:34:14.327Z,100947.44
2023-04-21T13:36:41.875Z,100956.25
2023-04-21T13:39:12.099Z,100949.19
2023-04-21T13:41:39.272Z,100948.31
2023-04-21T13:44:06.540Z,100954.50
2023-04-21T13:46:33.699Z,100951.84
2023-04-21T13:49:00.981Z,100943.00
2023-04-21T13:51:28.036Z,100948.31
2023-04-21T13:53:55.325Z,100943.00
2023-04-21T13:56:22.409Z,100938.56
2023-04-21T13:58:49.870Z,100927.09
2023-04-21T14:01:18.014Z,100925.31
2023-04-21T14:03:46.344Z,100917.34
2023-04-21T14:06:13.506Z,100920.00
2023-04-21T14:08:40.748Z,100908.50
2023-04-21T14:11:07.699Z,100905.84
2023-04-21T14:13:41.861Z,100901.44
2023-04-21T14:16:15.260Z,100899.66
2023-04-21T14:18:45.173Z,100901.41
2023-04-21T14:21:12.226Z,100897.00
2023-04-21T14:23:39.397Z,100890.81
2023-04-21T14:26:06.466Z,100883.72
2023-04-21T14:28:33.500Z,100881.97
2023-04-21T14:31:00.735Z,100875.75
2023-04-21T14:33:28.796Z,100872.22
2023-04-21T14:35:56.449Z,100882.81
2023-04-21T14:38:23.567Z,100881.94
2023-04-21T14:40:51.349Z,100866.03
2023-04-21T14:43:18.283Z,100872.22
2023-04-21T14:45:45.302Z,100870.44
2023-04-21T14:48:14.282Z,100869.56
2023-04-21T14:50:41.790Z,100865.13
2023-04-21T14:53:08.859Z,100864.22
2023-04-21T14:55:35.855Z,100866.88
2023-04-21T14:58:02.923Z,100863.34
2023-04-21T15:00:31.869Z,100836.50
2023-04-21T15:02:59.365Z,100829.63
2023-04-21T15:05:26.523Z,100817.44
2023-04-21T15:07:53.714Z,100808.66
2023-04-21T15:10:20.726Z,100811.38
2023-04-21T15:12:47.789Z,100803.47
2023-04-21T15:15:17.253Z,100804.44
2023-04-21T15:17:44.370Z,100802.44
2023-04-21T15:20:11.680Z,100799.28
2023-04-21T15:22:41.366Z,100791.34
2023-04-21T15:25:08.997Z,100795.81
2023-04-21T15:27:36.945Z,100796.00
2023-04-21T15:30:05.180Z,100786.09
2023-04-21T15:32:32.242Z,100772.00
2023-04-21T15:34:59.316Z,100769.19
2023-04-21T15:37:26.340Z,100770.28
2023-04-21T15:39:53.465Z,100771.13
2023-04-21T15:42:20.808Z,100766.59
2023-04-21T15:44:47.905Z,100764.78
2023-04-21T15:47:16.993Z,100761.34
2023-04-21T15:49:44.165Z,100763.78
2023-04-21T15:52:11.585Z,100755.09
2023-04-21T15:54:39.084Z,100746.91
2023-04-21T15:57:06.536Z,100740.81
2023-04-21T15:59:33.584Z,100739.16
2023-04-21T16:02:00.841Z,100731.47
2023-04-21T16:04:28.384Z,100725.19
2023-04-21T16:06:55.729Z,100713.66
2023-04-21T16:09:22.939Z,100712.88
2023-04-21T16:11:50.371Z,100707.56
2023-04-21T16:14:18.511Z,100698.78
2023-04-21T16:16:46.005Z,100686.47
2023-04-21T16:19:13.081Z,100685.66
2023-04-21T16:21:40.378Z,100679.38
2023-04-21T16:24:08.660Z,100689.25
2023-04-21T16:26:36.953Z,100683.75
2023-04-21T16:29:04.162Z,100681.19
2023-04-21T16:31:31.622Z,100684.66
2023-04-21T16:33:59.925Z,100688.09
2023-04-21T16:36:28.488Z,100685.56
2023-04-21T16:38:56.227Z,100681.13
2023-04-21T16:41:23.559Z,100681.38
2023-04-21T16:43:51.015Z,100679.59
2023-04-21T16:46:18.410Z,100683.31
2023-04-21T16:48:46.030Z,100686.00
2023-04-21T16:51:13.317Z,100690.47
2023-04-21T16:53:42.116Z,100702.94
2023-04-21T16:56:09.656Z,100715.47
2023-04-21T16:58:37.821Z,100720.50
2023-04-21T17:01:07.562Z,100724.31
2023-04-21T17:03:35.001Z,100711.47
2023-04-21T17:06:04.688Z,100696.66
2023-04-21T17:08:31.775Z,100685.13
2023-04-21T17:11:00.014Z,100676.28
2023-04-21T17:13:27.050Z,100682.53
2023-04-21T17:15:54.086Z,100668.41
2023-04-21T17:18:21.251Z,100671.19
2023-04-21T17:20:48.241Z,100666.84
2023-04-21T17:23:15.501Z,100651.13
2023-04-21T17:25:42.693Z,100641.47
2023-04-21T17:28:09.838Z,100638.78
2023-04-21T17:30:36.896Z,100630.81
2023-04-21T17:33:15.254Z,100632.34
2023-04-21T17:35:55.846Z,100630.50
2023-04-21T17:38:29.652Z,100630.38
2023-04-21T17:40:56.757Z,100631.16
2023-04-21T17:43:24.239Z,100634.69
2023-04-21T17:45:52.369Z,100648.00
2023-04-21T17:48:20.054Z,100648.81
2023-04-21T17:50:47.048Z,100657.72
2023-04-21T17:53:14.158Z,100654.19
2023-04-21T17:55:41.261Z,100654.28
2023-04-21T17:58:12.131Z,100649.94
2023-04-21T18:00:39.680Z,100648.19
2023-04-21T18:03:06.843Z,100647.31
2023-04-21T18:05:34.434Z,100639.50
2023-04-21T18:08:02.199Z,100632.53
2023-04-21T18:10:29.918Z,100626.50
2023-04-21T18:12:57.850Z,100622.28
2023-04-21T18:15:24.896Z,100619.81
2023-04-21T18:17:53.284Z,100621.72
2023-04-21T18:20:20.685Z,100624.44
2023-04-21T18:22:48.887Z,100618.31
2023-04-21T18:25:20.150Z,100623.63
2023-04-21T18:27:49.135Z,100626.31
2023-04-21T18:30:16.437Z,100622.78
2023-04-21T18:32:43.546Z,100620.19
2023-04-21T18:35:10.668Z,100631.72
2023-04-21T18:37:37.658Z,100636.13
2023-04-21T18:40:05.751Z,100649.34
2023-04-21T18:42:33.419Z,100644.13
2023-04-21T18:45:03.240Z,100652.06
2023-04-21T18:47:31.206Z,100666.19
2023-04-21T18:49:58.374Z,100671.50
2023-04-21T18:52:25.620Z,100684.69
2023-04-21T18:54:52.574Z,100686.47
2023-04-21T18:57:19.564Z,100690.88
2023-04-21T18:59:46.562Z,100706.75
2023-04-21T19:02:14.332Z,100723.44
2023-04-21T19:04:43.780Z,100739.22
2023-04-21T19:07:11.482Z,100762.97
2023-04-21T19:09:38.768Z,100766.59
2023-04-21T19:12:06.052Z,100766.59
2023-04-21T19:14:45.576Z,100766.59
2023-04-21T19:17:13.738Z,100775.47
2023-04-21T19:19:41.223Z,100761.25
2023-04-21T19:22:08.262Z,100768.34
2023-04-21T19:24:35.561Z,100759.34
2023-04-21T19:27:03.620Z,100762.88
2023-04-21T19:29:32.117Z,100762.81
2023-04-21T19:31:59.533Z,100775.13
2023-04-21T19:34:26.927Z,100769.84
2023-04-21T19:36:53.942Z,100778.56
2023-04-21T19:39:21.070Z,100804.91
2023-04-21T19:41:48.013Z,100804.88
2023-04-21T19:44:14.998Z,100807.34
2023-04-21T19:46:43.110Z,100802.13
2023-04-21T19:49:14.172Z,100800.28
2023-04-21T19:51:41.471Z,100804.66
2023-04-21T19:54:12.150Z,100801.03
2023-04-21T19:56:40.612Z,100801.03
2023-04-21T19:59:07.876Z,100795.72
2023-04-21T20:01:35.176Z,100803.44
2023-04-21T20:04:03.555Z,100797.16
2023-04-21T20:06:31.683Z,100799.81
2023-04-21T20:08:59.857Z,100782.25
2023-04-21T20:11:28.985Z,100793.59
2023-04-21T20:13:56.337Z,100806.78
2023-04-21T20:16:23.880Z,100825.19
2023-04-21T20:18:51.094Z,100830.41
2023-04-21T20:21:18.073Z,100839.19
2023-04-21T20:23:45.059Z,100828.44
2023-04-21T20:26:12.280Z,100811.75
2023-04-21T20:28:39.271Z,100803.84
2023-04-21T20:31:06.252Z,100815.25
2023-04-21T20:33:33.264Z,100803.66
2023-04-21T20:36:07.262Z,100818.66
2023-04-21T20:38:35.451Z,100835.44
2023-04-21T20:41:03.350Z,100825.63
2023-04-21T20:43:33.306Z,100811.47
2023-04-21T20:46:01.701Z,100771.16
2023-04-21T20:48:28.858Z,100786.75
2023-04-21T20:50:55.987Z,100756.88
2023-04-21T20:53:23.888Z,100771.69
2023-04-21T20:55:51.129Z,100762.09
2023-04-21T20:58:18.154Z,100761.19
2023-04-21T21:00:45.338Z,100762.00
2023-04-21T21:03:13.798Z,100768.16
2023-04-21T21:05:41.426Z,100769.00
2023-04-21T21:08:08.889Z,100761.94
2023-04-21T21:10:36.329Z,100758.47
2023-04-21T21:13:03.666Z,100769.91
2023-04-21T21:15:30.893Z,100764.63
2023-04-21T21:17:58.228Z,100764.63
2023-04-21T21:20:25.432Z,100770.81
2023-04-21T21:22:52.475Z,100767.16
2023-04-21T21:25:19.443Z,100768.00
2023-04-21T21:27:46.601Z,100764.41
2023-04-21T21:30:13.757Z,100767.84
2023-04-21T21:32:40.948Z,100760.72
2023-04-21T21:35:09.535Z,100760.53
2023-04-21T21:37:37.272Z,100744.72
2023-04-21T21:40:06.167Z,100736.69
2023-04-21T21:42:33.184Z,100727.72
2023-04-21T21:45:00.888Z,100731.25
2023-04-21T21:47:28.310Z,100732.13
2023-04-21T21:49:57.801Z,100747.91
2023-04-21T21:52:25.036Z,100754.75
2023-04-21T21:54:52.685Z,100744.22
2023-04-21T21:57:19.744Z,100738.84
2023-04-21T21:59:47.131Z,100746.72
2023-04-21T22:02:15.009Z,100740.44
2023-04-21T22:04:42.992Z,100740.38
2023-04-21T22:07:10.098Z,100743.84
2023-04-21T22:09:38.542Z,100736.75
2023-04-21T22:12:07.252Z,100737.56
2023-04-21T22:14:35.207Z,100733.97
2023-04-21T22:17:02.974Z,100730.38
2023-04-21T22:19:31.115Z,100729.41
2023-04-21T22:21:58.344Z,100734.44
2023-04-21T22:24:25.700Z,100737.06
2023-04-21T22:26:52.669Z,100731.72
2023-04-21T22:29:19.799Z,100737.78
2023-04-21T22:31:47.470Z,100733.31
2023-04-21T22:34:18.721Z,100737.72
2023-04-21T22:36:46.286Z,100736.84
2023-04-21T22:39:13.386Z,100733.09
2023-04-21T22:41:40.756Z,100729.56
2023-04-21T22:44:07.851Z,100727.75
2023-04-21T22:46:35.180Z,100733.13
2023-04-21T22:49:03.392Z,100729.56
2023-04-21T22:51:32.563Z,100737.09
2023-04-21T22:54:00.421Z,100735.41
2023-04-21T22:56:28.380Z,100739.53
2023-04-21T22:58:55.618Z,100737.00
2023-04-21T23:01:22.825Z,100736.78
2023-04-21T23:03:50.113Z,100738.66
2023-04-21T23:06:17.183Z,100728.16
2023-04-21T23:08:44.142Z,100725.13
2023-04-21T23:11:11.087Z,100733.59
2023-04-21T23:13:38.097Z,100725.66
2023-04-21T23:16:05.208Z,100734.38
2023-04-21T23:18:32.282Z,100737.06
2023-04-21T23:20:59.430Z,100736.06
2023-04-21T23:23:26.442Z,100731.75
2023-04-21T23:25:53.675Z,100728.16
2023-04-21T23:28:20.650Z,100732.47
2023-04-21T23:30:47.792Z,100734.19
2023-04-21T23:33:14.903Z,100740.13
2023-04-21T23:35:41.961Z,100737.34
2023-04-21T23:38:08.950Z,100727.66
2023-04-21T23:40:35.931Z,100738.16
2023-04-21T23:43:03.309Z,100733.72
2023-04-21T23:45:30.442Z,100737.09
2023-04-21T23:47:57.438Z,100744.03
2023-04-21T23:50:24.684Z,100741.38
2023-04-21T23:52:51.725Z,100738.72
2023-04-21T23:55:19.033Z,100745.59
2023-04-21T23:57:46.948Z,100752.69
